createdAt,value
2022-09-14T00:00:23.644Z,5.07
2022-09-14T00:03:26.578Z,4.25
2022-09-14T00:06:30.412Z,4.82
2022-09-14T00:09:33.252Z,4.07
2022-09-14T00:12:37.353Z,5.53
2022-09-14T00:15:41.931Z,3.60
2022-09-14T00:18:44.955Z,4.60
2022-09-14T00:21:53.225Z,4.05
2022-09-14T00:24:56.098Z,4.88
2022-09-14T00:28:00.165Z,5.77
2022-09-14T00:31:05.197Z,5.93
2022-09-14T00:34:09.901Z,5.03
2022-09-14T00:37:13.242Z,4.95
2022-09-14T00:40:16.238Z,3.80
2022-09-14T00:43:20.342Z,3.80
2022-09-14T00:46:23.721Z,3.07
2022-09-14T00:49:30.995Z,3.88
2022-09-14T00:52:36.891Z,4.82
2022-09-14T00:55:39.999Z,3.67
2022-09-14T00:58:45.677Z,4.67
2022-09-14T01:01:48.881Z,4.73
2022-09-14T01:04:52.368Z,5.40
2022-09-14T01:08:25.816Z,4.00
2022-09-14T01:11:46.383Z,3.72
2022-09-14T01:15:07.194Z,5.50
2022-09-14T01:18:17.498Z,3.70
2022-09-14T01:21:24.875Z,4.07
2022-09-14T01:24:36.330Z,6.95
2022-09-14T01:27:44.221Z,3.88
2022-09-14T01:30:48.910Z,3.13
2022-09-14T01:33:58.376Z,3.07
2022-09-14T01:37:12.811Z,4.57
2022-09-14T01:40:21.282Z,3.80
2022-09-14T01:43:30.269Z,3.70
2022-09-14T01:46:39.918Z,3.43
2022-09-14T01:49:47.237Z,3.43
2022-09-14T01:52:54.503Z,4.43
2022-09-14T01:56:01.175Z,4.25
2022-09-14T01:59:11.058Z,4.18
2022-09-14T02:02:18.475Z,4.90
2022-09-14T02:05:30.606Z,4.97
2022-09-14T02:08:34.783Z,4.40
2022-09-14T02:11:38.103Z,4.57
2022-09-14T02:14:42.451Z,4.68
2022-09-14T02:17:45.421Z,4.83
2022-09-14T02:20:52.182Z,4.17
2022-09-14T02:23:55.151Z,4.60
2022-09-14T02:26:59.907Z,3.42
2022-09-14T02:30:04.857Z,4.97
2022-09-14T02:33:16.626Z,4.53
2022-09-14T02:36:33.327Z,5.60
2022-09-14T02:39:44.088Z,5.32
2022-09-14T02:42:57.317Z,4.05
2022-09-14T02:46:07.798Z,3.65
2022-09-14T02:49:18.925Z,4.93
2022-09-14T02:52:32.170Z,4.93
2022-09-14T02:55:38.496Z,3.95
2022-09-14T02:58:43.411Z,4.85
2022-09-14T03:01:47.829Z,4.85
2022-09-14T03:04:50.607Z,6.37
2022-09-14T03:07:53.445Z,4.80
2022-09-14T03:10:56.442Z,4.22
2022-09-14T03:13:59.266Z,4.10
2022-09-14T03:17:03.437Z,5.28
2022-09-14T03:20:07.111Z,4.27
2022-09-14T03:23:11.238Z,3.37
2022-09-14T03:26:15.651Z,3.65
2022-09-14T03:29:18.368Z,5.10
2022-09-14T03:32:22.602Z,4.55
2022-09-14T03:35:25.691Z,4.70
2022-09-14T03:38:30.216Z,4.47
2022-09-14T03:41:32.812Z,4.20
2022-09-14T03:44:35.510Z,6.07
2022-09-14T03:47:40.122Z,5.00
2022-09-14T03:50:42.766Z,5.00
2022-09-14T03:53:46.143Z,5.20
2022-09-14T03:56:48.682Z,4.97
2022-09-14T03:59:51.490Z,4.28
2022-09-14T04:02:55.592Z,3.30
2022-09-14T04:05:58.214Z,4.13
2022-09-14T04:09:00.813Z,3.80
2022-09-14T04:12:03.837Z,6.45
2022-09-14T04:15:07.144Z,3.50
2022-09-14T04:18:11.082Z,5.35
2022-09-14T04:21:16.224Z,4.27
2022-09-14T04:24:19.203Z,4.97
2022-09-14T04:27:21.959Z,5.05
2022-09-14T04:30:24.530Z,4.13
2022-09-14T04:33:32.036Z,5.47
2022-09-14T04:36:34.804Z,4.97
2022-09-14T04:39:37.667Z,4.87
2022-09-14T04:42:40.276Z,5.63
2022-09-14T04:45:42.967Z,4.97
2022-09-14T04:48:47.471Z,3.90
2022-09-14T04:51:50.593Z,4.47
2022-09-14T04:54:53.268Z,5.43
2022-09-14T04:57:55.827Z,6.40
2022-09-14T05:01:02.470Z,4.78
2022-09-14T05:04:08.658Z,4.78
2022-09-14T05:07:11.587Z,5.87
2022-09-14T05:10:14.218Z,4.70
2022-09-14T05:13:16.779Z,4.95
2022-09-14T05:16:21.085Z,4.88
2022-09-14T05:19:25.070Z,4.60
2022-09-14T05:22:27.689Z,4.57
2022-09-14T05:25:30.388Z,4.23
2022-09-14T05:28:33.834Z,5.68
2022-09-14T05:31:36.587Z,5.82
2022-09-14T05:34:40.531Z,5.50
2022-09-14T05:37:43.206Z,5.27
2022-09-14T05:40:45.928Z,5.87
2022-09-14T05:43:48.519Z,4.50
2022-09-14T05:46:51.462Z,5.65
2022-09-14T05:49:55.394Z,5.15
2022-09-14T05:52:58.117Z,4.43
2022-09-14T05:56:01.506Z,4.17
2022-09-14T05:59:04.286Z,4.50
2022-09-14T06:02:07.902Z,7.53
2022-09-14T06:05:11.935Z,5.20
2022-09-14T06:08:14.575Z,4.97
2022-09-14T06:11:19.311Z,4.33
2022-09-14T06:14:21.998Z,4.00
2022-09-14T06:17:24.568Z,4.88
2022-09-14T06:20:28.687Z,4.63
2022-09-14T06:23:32.144Z,4.57
2022-09-14T06:26:34.889Z,3.70
2022-09-14T06:29:37.478Z,6.88
2022-09-14T06:32:40.178Z,4.35
2022-09-14T06:35:46.331Z,5.05
2022-09-14T06:38:50.302Z,4.47
2022-09-14T06:41:53.054Z,4.73
2022-09-14T06:44:55.656Z,3.85
2022-09-14T06:47:58.823Z,5.57
2022-09-14T06:51:12.536Z,5.43
2022-09-14T06:54:16.527Z,4.83
2022-09-14T06:57:19.229Z,5.80
2022-09-14T07:00:21.893Z,5.57
2022-09-14T07:03:24.549Z,4.70
2022-09-14T07:06:31.202Z,4.00
2022-09-14T07:09:34.393Z,5.97
2022-09-14T07:12:37.541Z,5.07
2022-09-14T07:15:40.165Z,4.82
2022-09-14T07:18:43.152Z,4.28
2022-09-14T07:21:48.340Z,4.75
2022-09-14T07:24:50.899Z,6.00
2022-09-14T07:27:53.477Z,5.57
2022-09-14T07:30:59.010Z,4.97
2022-09-14T07:34:03.774Z,7.20
2022-09-14T07:37:07.748Z,5.40
2022-09-14T07:40:11.980Z,5.97
2022-09-14T07:43:14.947Z,4.77
2022-09-14T07:46:17.630Z,5.53
2022-09-14T07:49:22.159Z,5.75
2022-09-14T07:52:26.259Z,4.07
2022-09-14T07:55:29.951Z,4.13
2022-09-14T07:58:32.993Z,3.47
2022-09-14T08:01:35.719Z,3.80
2022-09-14T08:04:39.238Z,3.60
2022-09-14T08:07:43.258Z,8.02
2022-09-14T08:10:45.801Z,5.70
2022-09-14T08:13:51.834Z,6.23
2022-09-14T08:16:54.480Z,5.78
2022-09-14T08:19:57.219Z,6.65
2022-09-14T08:23:01.444Z,4.53
2022-09-14T08:26:05.281Z,5.70
2022-09-14T08:29:08.275Z,8.27
2022-09-14T08:32:12.951Z,5.30
2022-09-14T08:35:15.609Z,3.17
2022-09-14T08:38:19.522Z,4.72
2022-09-14T08:41:29.070Z,5.20
2022-09-14T08:44:37.531Z,3.03
2022-09-14T08:47:41.921Z,6.32
2022-09-14T08:50:44.490Z,5.80
2022-09-14T08:53:50.713Z,5.05
2022-09-14T08:57:00.589Z,7.50
2022-09-14T09:00:08.198Z,5.27
2022-09-14T09:03:45.408Z,6.10
2022-09-14T09:06:58.229Z,7.03
2022-09-14T09:10:06.132Z,6.70
2022-09-14T09:13:13.591Z,4.43
2022-09-14T09:16:18.265Z,4.90
2022-09-14T09:19:28.678Z,5.35
2022-09-14T09:22:39.116Z,5.47
2022-09-14T09:25:52.791Z,4.85
2022-09-14T09:28:58.555Z,4.37
2022-09-14T09:32:01.375Z,6.37
2022-09-14T09:35:06.493Z,5.63
2022-09-14T09:38:15.915Z,5.35
2022-09-14T09:41:25.044Z,4.43
2022-09-14T09:44:27.786Z,4.20
2022-09-14T09:47:33.646Z,6.13
2022-09-14T09:50:36.330Z,5.85
2022-09-14T09:53:46.781Z,4.72
2022-09-14T09:56:56.529Z,3.35
2022-09-14T10:00:21.176Z,6.03
2022-09-14T10:03:29.498Z,3.20
2022-09-14T10:06:33.007Z,6.03
2022-09-14T10:09:36.591Z,4.47
2022-09-14T10:12:47.339Z,4.90
2022-09-14T10:15:50.198Z,3.45
2022-09-14T10:18:54.521Z,5.88
2022-09-14T10:22:17.634Z,3.67
2022-09-14T10:25:23.948Z,4.00
2022-09-14T10:28:30.539Z,4.47
2022-09-14T10:31:46.385Z,5.03
2022-09-14T10:34:49.075Z,4.90
2022-09-14T10:38:06.093Z,5.37
2022-09-14T10:41:24.524Z,3.72
2022-09-14T10:44:46.602Z,4.47
2022-09-14T10:48:03.635Z,5.13
2022-09-14T10:51:20.667Z,3.92
2022-09-14T10:54:46.872Z,3.57
2022-09-14T10:57:58.019Z,5.63
2022-09-14T11:01:17.655Z,3.50
2022-09-14T11:04:37.615Z,4.22
2022-09-14T11:07:51.587Z,5.28
2022-09-14T11:11:11.631Z,4.00
2022-09-14T11:14:29.387Z,3.35
2022-09-14T11:17:54.034Z,3.60
2022-09-14T11:21:07.806Z,4.75
2022-09-14T11:24:19.438Z,3.33
2022-09-14T11:27:27.928Z,5.00
2022-09-14T11:30:38.088Z,3.15
2022-09-14T11:33:49.807Z,3.97
2022-09-14T11:36:56.913Z,5.50
2022-09-14T11:40:08.046Z,6.78
2022-09-14T11:43:15.113Z,5.17
2022-09-14T11:46:22.456Z,4.93
2022-09-14T11:49:35.383Z,5.43
2022-09-14T11:52:37.957Z,3.78
2022-09-14T11:55:45.486Z,3.67
2022-09-14T11:58:48.338Z,5.13
2022-09-14T12:01:51.155Z,5.38
2022-09-14T12:05:29.801Z,4.75
2022-09-14T12:08:41.422Z,3.55
2022-09-14T12:11:45.043Z,3.90
2022-09-14T12:14:47.802Z,4.00
2022-09-14T12:17:51.621Z,6.45
2022-09-14T12:21:07.431Z,6.05
2022-09-14T12:24:16.690Z,2.42
2022-09-14T12:27:23.206Z,5.53
2022-09-14T12:30:40.591Z,4.53
2022-09-14T12:34:19.906Z,3.97
2022-09-14T12:37:32.492Z,4.38
2022-09-14T12:40:39.978Z,7.50
2022-09-14T12:43:55.267Z,6.43
2022-09-14T12:46:57.982Z,4.97
2022-09-14T12:50:13.566Z,5.18
2022-09-14T12:53:27.154Z,4.82
2022-09-14T12:56:39.248Z,4.40
2022-09-14T12:59:53.603Z,5.20
2022-09-14T13:03:14.976Z,5.83
2022-09-14T13:06:19.352Z,4.18
2022-09-14T13:09:25.344Z,3.25
2022-09-14T13:12:42.096Z,5.00
2022-09-14T13:15:52.707Z,6.25
2022-09-14T13:19:01.784Z,3.90
2022-09-14T13:22:19.162Z,6.10
2022-09-14T13:25:28.649Z,3.67
2022-09-14T13:28:33.008Z,3.63
2022-09-14T13:31:38.739Z,4.95
2022-09-14T13:34:41.510Z,4.30
2022-09-14T13:37:48.181Z,5.32
2022-09-14T13:40:53.640Z,5.18
2022-09-14T13:43:58.974Z,5.88
2022-09-14T13:47:04.666Z,3.40
2022-09-14T13:50:08.537Z,5.10
2022-09-14T13:53:43.505Z,4.60
2022-09-14T13:56:47.336Z,3.60
2022-09-14T14:00:17.394Z,4.47
2022-09-14T14:03:28.235Z,3.45
2022-09-14T14:06:34.756Z,4.77
2022-09-14T14:09:43.622Z,2.90
2022-09-14T14:12:50.578Z,3.72
2022-09-14T14:16:14.589Z,3.90
2022-09-14T14:19:29.104Z,4.45
2022-09-14T14:22:34.392Z,5.57
2022-09-14T14:25:45.833Z,5.07
2022-09-14T14:28:49.002Z,3.63
2022-09-14T14:31:55.914Z,3.70
2022-09-14T14:35:05.549Z,4.07
2022-09-14T14:38:09.503Z,4.63
2022-09-14T14:41:16.362Z,3.65
2022-09-14T14:44:22.428Z,3.05
2022-09-14T14:47:27.534Z,2.90
2022-09-14T14:50:33.623Z,3.08
2022-09-14T14:53:36.324Z,4.53
2022-09-14T14:56:39.276Z,5.00
2022-09-14T14:59:41.817Z,3.33
2022-09-14T15:02:46.044Z,3.08
2022-09-14T15:05:49.919Z,3.40
2022-09-14T15:08:54.818Z,4.07
2022-09-14T15:11:57.542Z,3.30
2022-09-14T15:15:00.988Z,3.90
2022-09-14T15:18:05.063Z,5.05
2022-09-14T15:21:08.515Z,3.33
2022-09-14T15:24:12.180Z,3.23
2022-09-14T15:27:14.974Z,4.60
2022-09-14T15:30:17.798Z,2.95
2022-09-14T15:33:21.699Z,3.97
2022-09-14T15:36:41.517Z,5.38
2022-09-14T15:39:50.098Z,2.60
2022-09-14T15:42:52.912Z,2.95
2022-09-14T15:45:55.551Z,4.55
2022-09-14T15:49:00.209Z,3.10
2022-09-14T15:52:03.479Z,3.33
2022-09-14T15:55:08.243Z,3.60
2022-09-14T15:58:11.857Z,3.60
2022-09-14T16:01:17.067Z,4.18
2022-09-14T16:04:22.029Z,3.85
2022-09-14T16:07:24.661Z,6.03
2022-09-14T16:10:27.415Z,5.75
2022-09-14T16:13:30.493Z,6.87
2022-09-14T16:16:34.815Z,10.47
2022-09-14T16:19:39.311Z,12.65
2022-09-14T16:22:42.006Z,13.70
2022-09-14T16:25:44.605Z,15.38
2022-09-14T16:28:49.390Z,19.60
2022-09-14T16:31:52.931Z,17.95
2022-09-14T16:34:56.903Z,17.45
2022-09-14T16:37:59.448Z,12.05
2022-09-14T16:41:02.426Z,6.80
2022-09-14T16:44:06.240Z,6.43
2022-09-14T16:47:08.812Z,7.55
2022-09-14T16:50:12.730Z,6.70
2022-09-14T16:53:15.272Z,6.93
2022-09-14T16:56:20.171Z,4.13
2022-09-14T16:59:23.101Z,4.07
2022-09-14T17:02:25.834Z,6.10
2022-09-14T17:05:29.915Z,5.75
2022-09-14T17:08:33.619Z,5.55
2022-09-14T17:11:37.667Z,5.97
2022-09-14T17:14:40.381Z,6.73
2022-09-14T17:17:42.926Z,5.10
2022-09-14T17:20:55.199Z,5.82
2022-09-14T17:23:57.817Z,7.07
2022-09-14T17:27:00.375Z,7.05
2022-09-14T17:30:03.085Z,7.07
2022-09-14T17:33:05.643Z,5.70
2022-09-14T17:36:09.868Z,6.70
2022-09-14T17:39:13.012Z,5.97
2022-09-14T17:42:15.559Z,6.20
2022-09-14T17:45:18.283Z,7.77
2022-09-14T17:48:21.835Z,4.60
2022-09-14T17:51:28.027Z,5.22
2022-09-14T17:54:31.573Z,4.82
2022-09-14T17:57:34.234Z,5.15
2022-09-14T18:00:37.278Z,6.57
2022-09-14T18:03:41.913Z,4.93
2022-09-14T18:06:50.248Z,6.20
2022-09-14T18:09:52.924Z,5.40
2022-09-14T18:12:55.492Z,4.28
2022-09-14T18:15:58.452Z,5.57
2022-09-14T18:19:01.513Z,4.18
2022-09-14T18:22:05.656Z,5.72
2022-09-14T18:25:09.777Z,5.72
2022-09-14T18:28:12.693Z,5.72
2022-09-14T18:31:17.437Z,4.87
2022-09-14T18:34:21.166Z,5.22
2022-09-14T18:37:25.103Z,5.18
2022-09-14T18:40:27.859Z,4.75
2022-09-14T18:43:32.530Z,5.03
2022-09-14T18:46:35.372Z,6.10
2022-09-14T18:49:37.989Z,5.97
2022-09-14T18:52:42.013Z,5.03
2022-09-14T18:55:44.589Z,5.10
2022-09-14T18:58:48.836Z,6.93
2022-09-14T19:01:51.405Z,7.37
2022-09-14T19:04:54.383Z,7.60
2022-09-14T19:07:58.603Z,7.93
2022-09-14T19:11:06.099Z,7.43
2022-09-14T19:14:11.647Z,7.38
2022-09-14T19:17:14.398Z,6.67
2022-09-14T19:20:18.082Z,7.13
2022-09-14T19:23:22.112Z,6.72
2022-09-14T19:26:24.780Z,6.40
2022-09-14T19:29:28.681Z,7.22
2022-09-14T19:32:31.248Z,5.50
2022-09-14T19:35:33.952Z,6.45
2022-09-14T19:38:38.405Z,5.75
2022-09-14T19:41:41.453Z,6.25
2022-09-14T19:44:44.360Z,4.63
2022-09-14T19:47:47.152Z,6.43
2022-09-14T19:50:49.785Z,5.63
2022-09-14T19:53:56.003Z,6.75
2022-09-14T19:56:58.755Z,6.03
2022-09-14T20:00:01.351Z,7.07
2022-09-14T20:03:04.185Z,6.13
2022-09-14T20:06:09.853Z,5.65
2022-09-14T20:09:16.588Z,6.50
2022-09-14T20:12:19.250Z,6.05
2022-09-14T20:15:22.082Z,6.25
2022-09-14T20:18:24.829Z,5.70
2022-09-14T20:21:28.956Z,5.13
2022-09-14T20:24:32.880Z,5.93
2022-09-14T20:27:35.605Z,6.50
2022-09-14T20:30:38.173Z,6.25
2022-09-14T20:33:41.173Z,5.77
2022-09-14T20:36:44.128Z,5.85
2022-09-14T20:39:48.566Z,6.85
2022-09-14T20:42:53.915Z,7.00
2022-09-14T20:46:01.070Z,6.78
2022-09-14T20:49:05.703Z,6.87
2022-09-14T20:52:08.403Z,6.80
2022-09-14T20:55:12.290Z,5.75
2022-09-14T20:58:14.980Z,7.10
2022-09-14T21:01:19.192Z,7.13
2022-09-14T21:04:23.620Z,7.83
2022-09-14T21:07:26.537Z,7.10
2022-09-14T21:10:30.710Z,6.85
2022-09-14T21:13:33.580Z,6.68
2022-09-14T21:16:42.926Z,7.22
2022-09-14T21:19:45.618Z,7.23
2022-09-14T21:22:48.527Z,7.03
2022-09-14T21:25:56.684Z,6.47
2022-09-14T21:29:01.193Z,6.95
2022-09-14T21:32:08.307Z,6.65
2022-09-14T21:35:11.718Z,7.37
2022-09-14T21:38:14.374Z,7.32
2022-09-14T21:41:19.619Z,6.82
2022-09-14T21:44:22.322Z,6.18
2022-09-14T21:47:24.918Z,6.68
2022-09-14T21:50:27.681Z,7.40
2022-09-14T21:53:30.515Z,6.82
2022-09-14T21:56:37.944Z,7.15
2022-09-14T21:59:40.568Z,6.95
2022-09-14T22:02:43.630Z,7.30
2022-09-14T22:05:56.705Z,7.50
2022-09-14T22:09:01.127Z,8.20
2022-09-14T22:12:05.425Z,7.00
2022-09-14T22:15:09.161Z,7.03
2022-09-14T22:18:11.704Z,7.97
2022-09-14T22:21:14.541Z,6.87
2022-09-14T22:24:19.549Z,7.88
2022-09-14T22:27:23.776Z,8.73
2022-09-14T22:30:26.618Z,7.15
2022-09-14T22:33:29.879Z,9.70
2022-09-14T22:36:33.106Z,6.03
2022-09-14T22:39:35.654Z,6.32
2022-09-14T22:42:39.715Z,7.43
2022-09-14T22:45:42.323Z,7.15
2022-09-14T22:48:45.752Z,6.47
2022-09-14T22:51:48.467Z,7.13
2022-09-14T22:54:51.139Z,6.72
2022-09-14T22:57:55.051Z,6.78
2022-09-14T23:00:57.792Z,6.47
2022-09-14T23:04:02.661Z,6.97
2022-09-14T23:07:07.627Z,6.83
2022-09-14T23:10:10.480Z,5.80
2022-09-14T23:13:14.564Z,7.03
2022-09-14T23:16:19.274Z,8.00
2022-09-14T23:19:22.073Z,6.13
2022-09-14T23:22:24.706Z,7.60
2022-09-14T23:25:27.357Z,6.20
2022-09-14T23:28:31.364Z,5.88
2022-09-14T23:31:34.801Z,8.20
2022-09-14T23:34:37.359Z,5.55
2022-09-14T23:37:40.036Z,5.63
2022-09-14T23:40:43.160Z,6.25
2022-09-14T23:43:47.804Z,6.03
2022-09-14T23:46:50.383Z,6.10
2022-09-14T23:49:53.107Z,8.48
2022-09-14T23:52:57.760Z,5.87
2022-09-14T23:56:00.852Z,5.72
2022-09-14T23:59:05.138Z,6.68
